.
WxDataArchive / Data Records for 2009-08-22
2009-08-21 August 2009 2009-08-23

Data Records for Saturday, 22 August 2009

Time	Temp	Chill	HIndex	Humid	Dewpt	 Wind 	HiWind	WindDir	Rain 	Barom 
-----	----	-----	------	-----	-----	------	------	-------	-----	----- 
00:00	64.5	64.5	64.5	92	62.1	0	1	270	0.00	29.816 
00:05	64.5	64.5	64.5	92	62.1	0	0	---	0.00	29.816 
00:10	64.5	64.5	64.5	92	62.1	0	0	---	0.00	29.816 
00:15	64.5	64.5	64.5	93	62.4	0	0	---	0.00	29.829 
00:20	64.5	64.5	64.5	93	62.4	0	0	---	0.00	29.829 
00:25	64.5	64.5	64.5	93	62.4	0	0	---	0.00	29.829 
00:30	64.5	64.5	64.5	93	62.4	0	0	---	0.00	29.834 
00:35	64.5	64.5	64.5	93	62.4	0	0	---	0.01	29.834 
00:40	64.5	64.5	64.5	94	62.7	0	0	---	0.00	29.834 
00:45	64.5	64.5	64.5	94	62.7	0	1	270	0.00	29.839 
00:50	64.5	64.5	64.5	94	62.7	0	0	---	0.01	29.839 
00:55	64.5	64.5	64.5	94	62.7	0	1	270	0.00	29.839 
01:00	64.5	64.5	64.5	94	62.7	0	0	---	0.00	29.832 
01:05	64.3	64.3	64.3	94	62.5	0	0	---	0.00	29.832 
01:10	64.3	64.3	64.3	94	62.5	0	0	---	0.00	29.832 
01:15	64.3	64.3	64.3	94	62.5	0	0	---	0.00	29.830 
01:20	64.3	64.3	64.3	94	62.5	0	1	270	0.00	29.830 
01:25	64.2	64.2	64.2	94	62.4	0	1	270	0.00	29.830 
01:30	64.0	64.0	64.0	94	62.2	0	1	270	0.00	29.830 
01:35	64.0	64.0	64.0	94	62.2	0	0	---	0.00	29.830 
01:40	63.9	63.9	63.9	94	62.1	0	1	270	0.00	29.830 
01:45	63.7	63.7	63.7	94	61.9	0	1	270	0.00	29.829 
01:50	63.4	63.4	63.4	94	61.6	0	1	270	0.00	29.829 
01:55	63.2	63.2	63.2	94	61.4	0	1	270	0.00	29.829 
02:00	63.1	63.1	63.1	94	61.3	0	1	270	0.00	29.830 
02:05	62.9	62.9	62.9	94	61.1	0	0	---	0.00	29.830 
02:10	62.9	62.9	62.9	94	61.1	0	1	270	0.00	29.830 
02:15	62.7	62.7	62.7	94	60.9	0	1	270	0.00	29.828 
02:20	62.6	62.6	62.6	94	60.8	0	0	---	0.00	29.828 
02:25	62.6	62.6	62.6	94	60.8	0	1	270	0.00	29.828 
02:30	62.7	62.7	62.7	94	60.9	0	1	270	0.00	29.829 
02:35	62.6	62.6	62.6	94	60.8	0	1	270	0.00	29.829 
02:40	62.6	62.6	62.6	94	60.8	0	1	270	0.00	29.829 
02:45	62.4	62.4	62.4	94	60.6	0	2	270	0.00	29.827 
02:50	62.3	62.3	62.3	94	60.5	0	1	270	0.00	29.827 
02:55	62.3	62.3	62.3	94	60.5	0	2	270	0.00	29.827 
03:00	62.1	62.1	62.1	94	60.3	0	2	270	0.00	29.830 
03:05	62.0	62.0	62.0	94	60.2	0	2	270	0.00	29.830 
03:10	62.0	62.0	62.0	93	59.9	0	1	270	0.00	29.830 
03:15	62.0	62.0	62.0	93	59.9	0	1	270	0.00	29.827 
03:20	62.0	62.0	62.0	93	59.9	0	1	270	0.00	29.827 
03:25	61.8	61.8	61.8	93	59.8	0	1	270	0.00	29.827 
03:30	61.8	61.8	61.8	93	59.8	0	1	270	0.00	29.823 
03:35	61.8	61.8	61.8	93	59.8	0	1	270	0.00	29.823 
03:40	61.8	61.8	61.8	93	59.8	0	1	270	0.00	29.823 
03:45	61.8	61.8	61.8	93	59.8	0	0	---	0.00	29.821 
03:50	61.8	61.8	61.8	93	59.8	0	0	---	0.00	29.821 
03:55	61.6	61.6	61.6	93	59.6	0	1	270	0.00	29.821 
04:00	61.6	61.6	61.6	93	59.6	0	0	---	0.00	29.820 
04:05	61.6	61.6	61.6	93	59.6	0	0	---	0.00	29.820 
04:10	61.6	61.6	61.6	94	59.9	0	1	270	0.00	29.820 
04:15	61.8	61.8	61.8	94	60.1	0	1	270	0.00	29.821 
04:20	61.8	61.8	61.8	94	60.1	0	1	270	0.00	29.821 
04:25	61.8	61.8	61.8	94	60.1	0	1	270	0.00	29.821 
04:30	61.8	61.8	61.8	94	60.1	0	1	270	0.00	29.826 
04:35	62.0	62.0	62.0	94	60.2	0	1	270	0.00	29.826 
04:40	62.0	62.0	62.0	94	60.2	0	1	270	0.00	29.826 
04:45	62.0	62.0	62.0	94	60.2	0	1	270	0.00	29.828 
04:50	62.0	62.0	62.0	94	60.2	0	1	270	0.00	29.828 
04:55	62.0	62.0	62.0	94	60.2	0	1	270	0.00	29.828 
05:00	62.0	62.0	62.0	94	60.2	0	1	270	0.00	29.829 
05:05	62.1	62.1	62.1	94	60.3	0	1	270	0.00	29.829 
05:10	62.1	62.1	62.1	94	60.3	0	1	270	0.00	29.829 
05:15	62.1	62.1	62.1	94	60.3	0	1	270	0.00	29.832 
05:20	62.1	62.1	62.1	94	60.3	0	1	270	0.00	29.832 
05:25	62.1	62.1	62.1	94	60.3	0	1	270	0.00	29.832 
05:30	62.1	62.1	62.1	94	60.3	0	1	270	0.00	29.836 
05:35	62.1	62.1	62.1	94	60.3	0	1	270	0.00	29.836 
05:40	62.0	62.0	62.0	94	60.2	0	0	---	0.00	29.836 
05:45	62.0	62.0	62.0	94	60.2	0	0	---	0.00	29.839 
05:50	62.0	62.0	62.0	94	60.2	0	2	270	0.00	29.839 
05:55	61.8	61.8	61.8	93	59.8	0	1	270	0.00	29.839 
06:00	61.8	61.8	61.8	93	59.8	0	1	270	0.00	29.844 
06:05	61.8	61.8	61.8	93	59.8	0	0	---	0.00	29.844 
06:10	61.8	61.8	61.8	93	59.8	0	2	270	0.00	29.844 
06:15	61.8	61.8	61.8	93	59.8	0	1	270	0.00	29.850 
06:20	61.6	61.6	61.6	93	59.6	0	1	270	0.00	29.850 
06:25	61.6	61.6	61.6	92	59.2	0	1	270	0.00	29.850 
06:30	61.6	61.6	61.6	92	59.2	0	0	---	0.00	29.855 
06:35	61.3	61.3	61.3	92	59.0	0	2	270	0.00	29.855 
06:40	61.2	61.2	61.2	92	58.9	0	1	270	0.00	29.855 
06:45	61.0	61.0	61.0	91	58.4	0	1	270	0.00	29.865 
06:50	60.9	60.9	60.9	91	58.3	0	1	270	0.00	29.865 
06:55	60.7	60.7	60.7	91	58.1	0	2	315	0.00	29.865 
07:00	60.7	60.7	60.7	91	58.1	0	4	68	0.00	29.868 
07:05	60.7	60.7	60.7	91	58.1	0	2	292	0.00	29.868 
07:10	60.7	60.7	60.7	91	58.1	0	0	---	0.00	29.868 
07:15	60.7	60.7	60.7	91	58.1	0	1	292	0.00	29.877 
07:20	60.7	60.7	60.7	91	58.1	0	1	292	0.00	29.877 
07:25	60.7	60.7	60.7	91	58.1	0	0	---	0.00	29.877 
07:30	60.7	60.7	60.7	91	58.1	0	1	292	0.00	29.881 
07:35	60.7	60.7	60.7	91	58.1	0	0	---	0.00	29.881 
07:40	60.7	60.7	60.7	91	58.1	0	1	292	0.00	29.881 
07:45	60.7	60.7	60.7	91	58.1	0	1	292	0.00	29.887 
07:50	60.7	60.7	60.7	91	58.1	0	1	292	0.00	29.887 
07:55	60.7	60.7	60.7	92	58.4	0	0	---	0.00	29.887 
08:00	60.9	60.9	60.9	92	58.6	0	1	292	0.00	29.895 
08:05	60.9	60.9	60.9	92	58.6	0	1	292	0.00	29.895 
08:10	60.9	60.9	60.9	92	58.6	0	0	---	0.00	29.895 
08:15	61.0	61.0	61.0	92	58.7	0	0	---	0.00	29.898 
08:20	61.0	61.0	61.0	92	58.7	0	1	292	0.00	29.898 
08:25	61.2	61.2	61.2	92	58.9	0	0	---	0.00	29.898 
08:30	61.2	61.2	61.2	91	58.5	0	2	292	0.00	29.901 
08:35	61.2	61.2	61.2	91	58.5	0	2	292	0.00	29.901 
08:40	61.2	61.2	61.2	90	58.2	1	3	292	0.00	29.901 
08:45	61.2	61.2	61.2	90	58.2	0	1	292	0.00	29.906 
08:50	61.2	61.2	61.2	90	58.2	0	1	292	0.00	29.906 
08:55	61.3	61.3	61.3	90	58.3	0	1	292	0.00	29.906 
09:00	61.3	61.3	61.3	90	58.3	0	3	90	0.00	29.912 
09:05	61.3	61.3	61.3	89	58.0	1	2	90	0.00	29.912 
09:10	61.5	61.5	61.5	89	58.2	0	1	90	0.00	29.912 
09:15	61.8	61.8	61.8	89	58.5	0	1	292	0.00	29.913 
09:20	62.1	62.1	62.1	86	57.9	1	3	292	0.00	29.913 
09:25	62.4	62.4	62.4	85	57.8	1	2	292	0.00	29.913 
09:30	62.6	62.6	62.6	83	57.4	0	2	270	0.00	29.913 
09:35	62.7	62.7	62.7	81	56.8	1	3	315	0.00	29.913 
09:40	62.9	62.9	62.9	82	57.3	0	3	315	0.00	29.913 
09:45	63.1	63.1	63.1	81	57.2	0	2	292	0.00	29.916 
09:50	63.2	63.2	63.2	81	57.3	0	2	292	0.00	29.916 
09:55	63.7	63.7	63.7	81	57.8	0	3	45	0.00	29.916 
10:00	63.9	63.9	63.9	78	56.9	1	4	68	0.00	29.926 
10:05	64.0	64.0	64.0	78	57.0	1	3	45	0.00	29.926 
10:10	64.7	64.7	64.7	78	57.7	0	3	112	0.00	29.926 
10:15	65.2	65.2	65.2	76	57.4	1	4	45	0.00	29.929 
10:20	65.5	65.5	65.5	73	56.6	1	5	292	0.00	29.929 
10:25	65.8	65.8	65.8	73	56.9	1	4	292	0.00	29.929 
10:30	66.3	66.3	66.3	73	57.4	0	3	338	0.00	29.932 
10:35	65.2	65.2	65.2	72	55.9	1	4	338	0.00	29.932 
10:40	64.5	64.5	64.5	74	56.0	1	3	270	0.00	29.932 
10:45	64.8	64.8	64.8	74	56.3	0	3	270	0.00	29.939 
10:50	65.3	65.3	65.3	69	54.9	2	5	315	0.00	29.939 
10:55	65.6	65.6	65.6	69	55.1	1	5	270	0.00	29.939 
11:00	66.1	66.1	66.1	69	55.6	1	4	292	0.00	29.947 
11:05	66.3	66.3	66.3	68	55.4	1	4	292	0.00	29.947 
11:10	66.8	66.8	66.8	69	56.3	0	2	45	0.00	29.947 
11:15	67.1	67.1	67.1	68	56.2	1	3	270	0.00	29.947 
11:20	66.6	66.6	66.6	69	56.1	1	4	338	0.00	29.947 
11:25	66.0	66.0	66.0	69	55.5	1	3	292	0.00	29.947 
11:30	66.3	66.3	66.3	66	54.6	2	4	292	0.00	29.948 
11:35	66.9	66.9	66.9	67	55.6	1	3	292	0.00	29.948 
11:40	67.3	67.3	67.3	66	55.5	1	5	338	0.00	29.948 
11:45	68.1	68.1	68.1	66	56.3	0	2	45	0.00	29.946 
11:50	69.1	69.1	69.1	65	56.8	0	3	45	0.00	29.946 
11:55	69.3	69.3	69.3	62	55.7	0	3	22	0.00	29.946 
12:00	68.4	68.4	68.4	62	54.9	1	4	292	0.00	29.946 
12:05	68.6	68.6	68.6	63	55.5	1	4	292	0.00	29.946 
12:10	69.1	69.1	69.1	64	56.4	1	2	292	0.00	29.946 
12:15	69.1	69.1	69.1	58	53.7	1	3	292	0.00	29.948 
12:20	69.1	69.1	69.1	62	55.5	0	2	292	0.00	29.948 
12:25	68.8	68.8	68.8	60	54.3	1	3	292	0.00	29.948 
12:30	68.3	68.3	68.3	60	53.9	1	3	292	0.00	29.949 
12:35	67.8	67.8	67.8	62	54.3	0	3	315	0.00	29.949 
12:40	67.3	67.3	67.3	62	53.8	0	2	315	0.00	29.949 
12:45	67.1	67.1	67.1	64	54.5	0	2	315	0.00	29.955 
12:50	67.1	67.1	67.1	64	54.5	0	1	45	0.00	29.955 
12:55	67.1	67.1	67.1	62	53.6	1	2	45	0.00	29.955 
13:00	67.3	67.3	67.3	63	54.3	0	2	292	0.00	29.956 
13:05	66.9	66.9	66.9	62	53.4	0	1	292	0.00	29.956 
13:10	66.8	66.8	66.8	63	53.8	1	2	292	0.00	29.956 
13:15	66.4	66.4	66.4	64	53.8	0	2	292	0.00	29.962 
13:20	66.4	66.4	66.4	64	53.8	0	1	292	0.00	29.962 
13:25	66.3	66.3	66.3	64	53.7	1	2	292	0.00	29.962 
13:30	66.1	66.1	66.1	65	54.0	1	4	292	0.00	29.965 
13:35	66.0	66.0	66.0	65	53.9	0	2	292	0.00	29.965 
13:40	66.1	66.1	66.1	66	54.4	0	1	292	0.00	29.965 
13:45	65.8	65.8	65.8	65	53.7	1	4	292	0.00	29.966 
13:50	65.6	65.6	65.6	67	54.3	1	4	270	0.00	29.966 
13:55	65.8	65.8	65.8	65	53.7	1	2	270	0.00	29.966 
14:00	66.3	66.3	66.3	67	55.0	0	2	270	0.00	29.966 
14:05	66.6	66.6	66.6	66	54.9	0	1	270	0.00	29.966 
14:10	66.6	66.6	66.6	65	54.5	0	1	270	0.00	29.966 
14:15	66.1	66.1	66.1	65	54.0	0	1	270	0.00	29.965 
14:20	65.8	65.8	65.8	67	54.5	1	3	270	0.00	29.965 
14:25	65.8	65.8	65.8	67	54.5	0	2	270	0.00	29.965 
14:30	66.0	66.0	66.0	67	54.7	0	2	270	0.00	29.966 
14:35	66.1	66.1	66.1	65	54.0	0	2	270	0.00	29.966 
14:40	66.0	66.0	66.0	64	53.5	1	4	270	0.00	29.966 
14:45	65.6	65.6	65.6	65	53.5	0	3	292	0.00	29.969 
14:50	65.6	65.6	65.6	66	53.9	0	3	292	0.00	29.969 
14:55	65.5	65.5	65.5	67	54.2	0	2	292	0.00	29.969 
15:00	65.5	65.5	65.5	68	54.7	0	2	292	0.00	29.967 
15:05	65.5	65.5	65.5	68	54.7	0	1	292	0.00	29.967 
15:10	65.5	65.5	65.5	69	55.1	0	2	292	0.00	29.967 
15:15	65.5	65.5	65.5	68	54.7	0	2	292	0.00	29.964 
15:20	65.6	65.6	65.6	67	54.3	0	2	292	0.00	29.964 
15:25	65.3	65.3	65.3	66	53.6	0	3	292	0.00	29.964 
15:30	65.3	65.3	65.3	68	54.5	0	1	292	0.00	29.961 
15:35	65.0	65.0	65.0	68	54.2	0	0	---	0.00	29.961 
15:40	64.8	64.8	64.8	70	54.8	0	0	---	0.00	29.961 
15:45	64.8	64.8	64.8	71	55.2	0	0	---	0.00	29.961 
15:50	64.8	64.8	64.8	70	54.8	0	1	292	0.00	29.961 
15:55	64.7	64.7	64.7	70	54.7	0	1	292	0.00	29.961 
16:00	64.5	64.5	64.5	70	54.5	0	1	292	0.00	29.958 
16:05	64.5	64.5	64.5	71	54.9	0	1	292	0.00	29.958 
16:10	64.5	64.5	64.5	72	55.3	0	1	292	0.00	29.958 
16:15	64.3	64.3	64.3	72	55.1	0	1	292	0.00	29.957 
16:20	64.3	64.3	64.3	72	55.1	0	0	---	0.00	29.957 
16:25	64.5	64.5	64.5	72	55.3	0	1	292	0.00	29.957 
16:30	64.3	64.3	64.3	72	55.1	0	2	292	0.00	29.960 
16:35	64.3	64.3	64.3	72	55.1	1	3	292	0.00	29.960 
16:40	64.3	64.3	64.3	72	55.1	1	2	292	0.00	29.960 
16:45	64.2	64.2	64.2	73	55.4	1	4	315	0.00	29.964 
16:50	64.2	64.2	64.2	76	56.5	2	5	270	0.00	29.964 
16:55	63.7	63.7	63.7	77	56.3	1	3	270	0.00	29.964 
17:00	63.5	63.5	63.5	78	56.5	1	3	270	0.00	29.965 
17:05	63.4	63.4	63.4	78	56.4	1	2	292	0.00	29.965 
17:10	63.2	63.2	63.2	78	56.2	1	3	292	0.00	29.965 
17:15	63.2	63.2	63.2	78	56.2	1	2	292	0.00	29.968 
17:20	63.1	63.1	63.1	78	56.1	1	2	315	0.00	29.968 
17:25	62.9	62.9	62.9	78	55.9	1	5	270	0.00	29.968 
17:30	62.7	62.7	62.7	77	55.4	1	3	270	0.00	29.969 
17:35	62.7	62.7	62.7	77	55.4	0	3	270	0.00	29.969 
17:40	63.1	63.1	63.1	77	55.8	0	2	270	0.00	29.969 
17:45	63.2	63.2	63.2	77	55.9	0	2	270	0.00	29.967 
17:50	63.2	63.2	63.2	76	55.5	0	2	270	0.00	29.967 
17:55	63.4	63.4	63.4	76	55.7	1	3	292	0.00	29.967 
18:00	63.9	63.9	63.9	76	56.2	1	4	270	0.00	29.960 
18:05	64.3	64.3	64.3	76	56.6	0	2	270	0.00	29.960 
18:10	64.8	64.8	64.8	75	56.7	0	1	270	0.00	29.960 
18:15	65.2	65.2	65.2	74	56.7	1	3	270	0.00	29.958 
18:20	65.3	65.3	65.3	73	56.4	1	3	270	0.00	29.958 
18:25	65.3	65.3	65.3	73	56.4	1	4	270	0.00	29.958 
18:30	65.2	65.2	65.2	72	55.9	1	3	270	0.00	29.960 
18:35	65.2	65.2	65.2	72	55.9	1	3	270	0.00	29.960 
18:40	65.5	65.5	65.5	71	55.8	1	4	292	0.00	29.960 
18:45	65.3	65.3	65.3	71	55.6	1	4	292	0.00	29.961 
18:50	65.2	65.2	65.2	73	56.3	1	4	270	0.00	29.961 
18:55	65.0	65.0	65.0	74	56.5	1	3	270	0.00	29.961 
19:00	64.8	64.8	64.8	75	56.7	1	4	270	0.00	29.965 
19:05	64.7	64.7	64.7	75	56.6	1	2	270	0.00	29.965 
19:10	64.3	64.3	64.3	74	55.8	2	3	270	0.00	29.965 
19:15	64.2	64.2	64.2	74	55.7	1	4	315	0.00	29.969 
19:20	64.3	64.3	64.3	73	55.5	1	4	270	0.00	29.969 
19:25	64.2	64.2	64.2	73	55.4	1	4	315	0.00	29.969 
19:30	64.2	64.2	64.2	75	56.1	0	2	315	0.00	29.968 
19:35	64.0	64.0	64.0	74	55.5	1	4	292	0.00	29.968 
19:40	63.7	63.7	63.7	76	56.0	1	3	292	0.00	29.968 
19:45	63.5	63.5	63.5	76	55.8	0	3	292	0.00	29.970 
19:50	63.4	63.4	63.4	77	56.1	0	1	315	0.00	29.970 
19:55	63.1	63.1	63.1	77	55.8	0	1	315	0.00	29.970 
20:00	62.9	62.9	62.9	78	55.9	0	1	315	0.00	29.976 
20:05	62.7	62.7	62.7	78	55.7	0	1	315	0.00	29.976 
20:10	62.4	62.4	62.4	79	55.8	0	3	315	0.00	29.976 
20:15	62.3	62.3	62.3	80	56.0	1	3	315	0.00	29.979 
20:20	62.1	62.1	62.1	81	56.2	0	1	315	0.00	29.979 
20:25	61.8	61.8	61.8	81	55.9	0	3	270	0.00	29.979 
20:30	61.8	61.8	61.8	81	55.9	0	1	270	0.00	29.983 
20:35	61.6	61.6	61.6	82	56.0	0	1	270	0.00	29.983 
20:40	61.5	61.5	61.5	83	56.3	0	1	270	0.00	29.983 
20:45	61.3	61.3	61.3	83	56.1	0	1	270	0.00	29.986 
20:50	61.3	61.3	61.3	84	56.4	0	0	---	0.00	29.986 
20:55	61.3	61.3	61.3	84	56.4	0	1	270	0.00	29.986 
21:00	61.3	61.3	61.3	86	57.1	1	3	112	0.01	29.999 
21:05	61.0	61.0	61.0	87	57.1	0	3	112	0.02	29.999 
21:10	60.5	60.5	60.5	88	56.9	0	0	---	0.00	29.999 
21:15	60.2	60.2	60.2	89	56.9	0	1	112	0.01	30.002 
21:20	60.1	60.1	60.1	90	57.2	0	0	---	0.00	30.002 
21:25	59.8	59.8	59.8	90	56.9	0	0	---	0.00	30.002 
21:30	59.6	59.6	59.6	91	57.0	0	0	---	0.00	30.000 
21:35	59.5	59.5	59.5	91	56.9	0	0	---	0.00	30.000 
21:40	59.3	59.3	59.3	91	56.7	0	0	---	0.00	30.000 
21:45	59.3	59.3	59.3	92	57.0	0	0	---	0.00	30.004 
21:50	59.3	59.3	59.3	92	57.0	0	0	---	0.00	30.004 
21:55	59.3	59.3	59.3	92	57.0	0	0	---	0.00	30.004 
22:00	59.3	59.3	59.3	93	57.3	0	0	---	0.00	30.012 
22:05	59.3	59.3	59.3	93	57.3	0	0	---	0.00	30.012 
22:10	59.3	59.3	59.3	93	57.3	0	0	---	0.00	30.012 
22:15	59.3	59.3	59.3	93	57.3	0	0	---	0.00	30.013 
22:20	59.5	59.5	59.5	94	57.8	0	0	---	0.00	30.013 
22:25	59.6	59.6	59.6	94	57.9	0	0	---	0.00	30.013 
22:30	59.8	59.8	59.8	94	58.1	0	0	---	0.00	30.012 
22:35	59.9	59.9	59.9	94	58.2	0	0	---	0.00	30.012 
22:40	59.9	59.9	59.9	94	58.2	0	0	---	0.00	30.012 
22:45	59.9	59.9	59.9	94	58.2	0	0	---	0.00	30.011 
22:50	59.9	59.9	59.9	94	58.2	0	0	---	0.00	30.011 
22:55	59.8	59.8	59.8	94	58.1	0	0	---	0.00	30.011 
23:00	59.8	59.8	59.8	94	58.1	0	0	---	0.00	30.012 
23:05	59.8	59.8	59.8	94	58.1	0	1	112	0.00	30.012 
23:10	59.8	59.8	59.8	95	58.4	0	0	---	0.00	30.012 
23:15	59.8	59.8	59.8	94	58.1	0	0	---	0.00	30.008 
23:20	59.6	59.6	59.6	94	57.9	0	0	---	0.00	30.008 
23:25	59.6	59.6	59.6	94	57.9	0	0	---	0.00	30.008 
23:30	59.5	59.5	59.5	94	57.8	0	0	---	0.00	30.011 
23:35	59.5	59.5	59.5	95	58.1	0	0	---	0.00	30.011 
23:40	59.5	59.5	59.5	95	58.1	0	0	---	0.00	30.011 
23:45	59.5	59.5	59.5	95	58.1	0	0	---	0.00	30.009 
23:50	59.5	59.5	59.5	95	58.1	0	0	---	0.00	30.009 
23:55	59.5	59.5	59.5	95	58.1	0	0	---	0.00	30.009 

CoCoRaHS
IN-AL-39
A2 Web Hosting
Creative Commons License
GoDaddy
search engine by freefind advanced

loaded 2018-11-14 00:00:54 • last modified 2010-11-18 10:43:29
Privacy PolicyDisclaimer
• wx.awcolley.com is powered by PmWiki v.2002016 •
• all content (unless otherwise noted) © 2018 A W Colley